Time;durP1;ratioP1;P1;durP2;ratioP2;P2;SDS_P1;SDS_P2;PMS_P1;PMS_P2;Temp;Humidity;BMP_temperature;BMP_pressure;BME280_temperature;BME280_humidity;BME280_pressure;Samples;Min_cycle;Max_cycle;Signal;HPM_P1;HPM_P2
2023/07/17 00:00:15;;;;;;;11.57;6.28;;;27.60;99.90;;;;;;1820172;77;21131;-79
2023/07/17 00:02:48;;;;;;;12.18;6.83;;;27.60;99.90;;;;;;1820732;77;21075;-78
2023/07/17 00:05:22;;;;;;;11.97;6.20;;;27.60;99.90;;;;;;1817455;77;21146;-80
2023/07/17 00:07:59;;;;;;;12.10;7.22;;;27.60;99.90;;;;;;1819780;77;21181;-79
2023/07/17 00:10:30;;;;;;;12.30;6.55;;;27.70;99.90;;;;;;1821354;77;21169;-81
2023/07/17 00:13:03;;;;;;;11.15;6.90;;;27.70;99.90;;;;;;1824152;77;21138;-76
2023/07/17 00:15:36;;;;;;;14.65;7.15;;;27.70;99.90;;;;;;1820057;77;21072;-81
2023/07/17 00:18:09;;;;;;;14.87;7.08;;;27.70;99.90;;;;;;1816733;77;21149;-81
2023/07/17 00:20:44;;;;;;;11.78;6.72;;;27.80;99.90;;;;;;1823881;77;21103;-80
2023/07/17 00:23:21;;;;;;;14.18;7.47;;;27.80;99.90;;;;;;1819388;77;21166;-79
2023/07/17 00:25:54;;;;;;;15.08;6.87;;;27.90;99.90;;;;;;1804528;77;21169;-79
2023/07/17 00:28:26;;;;;;;11.80;7.15;;;27.90;99.90;;;;;;1805212;78;21098;-78
2023/07/17 00:31:00;;;;;;;12.93;8.13;;;27.90;99.90;;;;;;1787474;79;21177;-69
2023/07/17 00:33:32;;;;;;;13.55;7.45;;;28.00;99.90;;;;;;1764273;80;21591;-70
2023/07/17 00:36:06;;;;;;;16.73;7.70;;;28.00;99.90;;;;;;1766643;79;21111;-68
2023/07/17 00:38:39;;;;;;;14.07;7.67;;;28.10;99.90;;;;;;1768570;80;21556;-69
2023/07/17 00:41:11;;;;;;;16.60;7.50;;;28.10;99.90;;;;;;1809035;77;21182;-67
2023/07/17 00:43:46;;;;;;;13.85;7.60;;;28.10;99.90;;;;;;1824370;77;21095;-70
2023/07/17 00:46:19;;;;;;;10.80;7.33;;;28.20;99.90;;;;;;1818492;77;21068;-71
2023/07/17 00:48:52;;;;;;;9.80;6.58;;;28.20;99.90;;;;;;1819750;77;21123;-70
2023/07/17 00:51:26;;;;;;;11.45;7.90;;;28.20;99.90;;;;;;1829211;77;21114;-68
2023/07/17 00:53:59;;;;;;;17.15;7.65;;;28.30;99.90;;;;;;1819080;77;21488;-69
2023/07/17 00:56:31;;;;;;;13.10;8.15;;;28.30;99.90;;;;;;1792452;79;21538;-69
2023/07/17 00:59:06;;;;;;;18.95;9.00;;;28.30;99.90;;;;;;1802440;78;21073;-68
2023/07/17 01:01:39;;;;;;;11.95;7.58;;;28.20;99.90;;;;;;1794635;79;21170;-70
2023/07/17 01:04:12;;;;;;;14.73;7.47;;;28.30;99.90;;;;;;1802051;79;21083;-69
2023/07/17 01:06:45;;;;;;;17.32;7.60;;;28.30;99.90;;;;;;1790228;79;21523;-71
2023/07/17 01:09:18;;;;;;;16.05;8.43;;;28.40;99.90;;;;;;1804403;78;21798;-69
2023/07/17 01:11:51;;;;;;;13.83;8.13;;;28.40;99.90;;;;;;1779377;79;21122;-70
2023/07/17 01:14:23;;;;;;;15.38;7.03;;;28.50;99.90;;;;;;1819695;78;21100;-70
2023/07/17 01:16:57;;;;;;;19.12;7.72;;;28.60;99.90;;;;;;1826013;77;21123;-70
2023/07/17 01:19:30;;;;;;;32.45;8.95;;;28.70;99.90;;;;;;1790653;79;21542;-69
2023/07/17 01:22:14;;;;;;;24.25;9.05;;;28.80;99.90;;;;;;1792658;79;21542;-70
2023/07/17 01:24:47;;;;;;;15.15;7.22;;;28.80;99.90;;;;;;1824060;77;21102;-70
2023/07/17 01:27:19;;;;;;;34.58;9.58;;;28.90;99.90;;;;;;1794621;79;21613;-70
2023/07/17 01:29:53;;;;;;;13.72;7.00;;;28.90;99.90;;;;;;1789887;79;21186;-71
2023/07/17 01:32:25;;;;;;;26.97;9.85;;;29.00;99.90;;;;;;1788874;79;21168;-72
2023/07/17 01:34:59;;;;;;;35.25;11.50;;;29.10;99.90;;;;;;1786748;79;21159;-71
2023/07/17 01:37:33;;;;;;;23.73;9.38;;;29.20;99.90;;;;;;1781147;79;21185;-69
2023/07/17 01:40:09;;;;;;;27.32;11.20;;;29.30;99.90;;;;;;1783145;79;21164;-69
2023/07/17 01:42:42;;;;;;;13.20;7.70;;;29.40;99.90;;;;;;1776473;79;21161;-70
2023/07/17 01:45:14;;;;;;;38.45;16.32;;;29.50;99.90;;;;;;1835852;77;21131;-70
2023/07/17 01:47:47;;;;;;;15.20;7.75;;;29.70;99.90;;;;;;1795364;78;21167;-69
2023/07/17 01:50:19;;;;;;;13.43;6.90;;;29.80;99.90;;;;;;1827555;77;21174;-70
2023/07/17 01:52:51;;;;;;;17.05;8.25;;;29.90;99.90;;;;;;1827485;77;21160;-70
2023/07/17 01:55:24;;;;;;;19.95;7.70;;;29.90;99.90;;;;;;1829082;77;21106;-68
2023/07/17 01:57:56;;;;;;;31.50;12.28;;;29.80;99.90;;;;;;1829983;77;21472;-71
2023/07/17 02:00:28;;;;;;;25.00;10.10;;;29.80;99.90;;;;;;1829143;77;21118;-70
2023/07/17 02:03:02;;;;;;;18.48;7.65;;;29.80;99.90;;;;;;1795720;78;21123;-70
2023/07/17 02:05:33;;;;;;;21.17;11.35;;;29.70;99.90;;;;;;1818651;77;21102;-70
2023/07/17 02:08:06;;;;;;;85.35;12.80;;;29.70;99.90;;;;;;1824582;77;21217;-72
2023/07/17 02:10:44;;;;;;;23.50;8.05;;;29.70;99.90;;;;;;1795857;78;21520;-70
2023/07/17 02:13:16;;;;;;;28.20;9.95;;;29.80;99.90;;;;;;1823537;77;21153;-70
2023/07/17 02:15:49;;;;;;;21.70;8.83;;;29.80;99.90;;;;;;1821327;77;21217;-70
2023/07/17 02:18:22;;;;;;;22.65;9.33;;;29.80;99.90;;;;;;1824962;77;21151;-71
2023/07/17 02:20:53;;;;;;;27.45;9.73;;;29.80;99.90;;;;;;1819844;77;21225;-71
2023/07/17 02:23:27;;;;;;;36.73;13.43;;;29.90;99.90;;;;;;1794290;78;21092;-70
2023/07/17 02:26:00;;;;;;;34.38;10.32;;;29.90;99.90;;;;;;1797853;78;21127;-70
2023/07/17 02:28:31;;;;;;;13.28;6.58;;;30.00;99.90;;;;;;1803551;78;21512;-71
2023/07/17 02:31:05;;;;;;;20.08;7.58;;;30.00;99.90;;;;;;1799526;78;21189;-70
2023/07/17 02:33:39;;;;;;;17.32;6.80;;;30.10;99.90;;;;;;1796546;79;21180;-69
2023/07/17 02:36:11;;;;;;;24.77;7.35;;;30.10;99.90;;;;;;1799072;78;21190;-71
2023/07/17 02:38:44;;;;;;;19.07;6.65;;;30.20;99.90;;;;;;1795003;79;21568;-69
2023/07/17 02:41:21;;;;;;;18.25;7.45;;;30.30;99.90;;;;;;1830360;77;21139;-69
2023/07/17 02:44:02;;;;;;;19.12;7.12;;;30.40;99.90;;;;;;1799134;78;21138;-70
2023/07/17 02:46:35;;;;;;;25.00;6.97;;;30.50;99.90;;;;;;1806434;78;21119;-68
2023/07/17 02:49:13;;;;;;;27.65;6.92;;;30.60;99.90;;;;;;1834594;77;21134;-69
2023/07/17 02:51:46;;;;;;;20.75;7.28;;;30.70;99.90;;;;;;1826786;77;21059;-68
2023/07/17 02:54:21;;;;;;;12.23;5.72;;;30.80;99.90;;;;;;1830409;77;21541;-69
2023/07/17 02:56:56;;;;;;;34.38;10.98;;;30.80;99.90;;;;;;1805161;78;21639;-70
2023/07/17 02:59:29;;;;;;;28.32;10.38;;;30.90;99.90;;;;;;1816931;78;21602;-69
2023/07/17 03:02:02;;;;;;;21.50;8.30;;;30.90;99.90;;;;;;1809199;78;21428;-70
2023/07/17 03:04:35;;;;;;;36.68;14.58;;;30.80;99.80;;;;;;1798939;78;21699;-71
2023/07/17 03:07:08;;;;;;;20.60;8.93;;;30.80;99.70;;;;;;1807284;78;21943;-70
2023/07/17 03:09:41;;;;;;;16.45;6.40;;;30.70;99.90;;;;;;1829322;77;21083;-71
2023/07/17 03:12:13;;;;;;;35.68;9.10;;;30.70;99.70;;;;;;1805294;78;21565;-69
2023/07/17 03:14:46;;;;;;;11.08;4.95;;;30.60;99.90;;;;;;1800624;79;21091;-72
2023/07/17 03:17:19;;;;;;;16.82;5.92;;;30.70;99.90;;;;;;1838421;77;21142;-72
2023/07/17 03:19:52;;;;;;;64.25;13.70;;;30.60;99.90;;;;;;1795062;78;21167;-72
2023/07/17 03:22:26;;;;;;;20.88;6.40;;;30.70;99.90;;;;;;1840915;77;21513;-70
2023/07/17 03:25:00;;;;;;;13.90;4.87;;;30.70;99.80;;;;;;1790390;79;21527;-69
2023/07/17 03:27:54;;;;;;;10.03;5.30;;;30.70;99.40;;;;;;1833530;77;21146;-68
2023/07/17 03:30:28;;;;;;;12.28;4.80;;;30.80;99.30;;;;;;1820530;77;21146;-70
2023/07/17 03:33:02;;;;;;;39.27;12.03;;;30.80;99.10;;;;;;1801049;78;21087;-70
2023/07/17 03:35:37;;;;;;;;;;;30.80;99.10;;;;;;1828970;77;21184;-70
2023/07/17 03:38:11;;;;;;;12.10;6.35;;;30.80;99.30;;;;;;1798611;78;20185;-71
2023/07/17 03:40:47;;;;;;;11.73;5.15;;;30.90;98.90;;;;;;1782073;80;21107;-70
2023/07/17 03:43:24;;;;;;;33.90;8.25;;;30.80;99.00;;;;;;1801348;78;21746;-72
2023/07/17 03:45:59;;;;;;;34.23;8.23;;;30.80;99.40;;;;;;1796472;78;21657;-71
2023/07/17 03:48:33;;;;;;;20.43;7.80;;;30.90;99.70;;;;;;1811369;78;21139;-71
2023/07/17 03:51:07;;;;;;;42.43;10.55;;;30.80;99.60;;;;;;1794101;78;21167;-69
2023/07/17 03:53:42;;;;;;;21.15;6.55;;;30.90;99.80;;;;;;1802177;79;21116;-71
2023/07/17 03:56:16;;;;;;;9.85;5.42;;;30.90;99.50;;;;;;1815522;77;21188;-69
2023/07/17 03:58:48;;;;;;;12.82;5.70;;;30.90;99.40;;;;;;1823648;76;21194;-70
2023/07/17 04:01:21;;;;;;;11.45;5.67;;;30.90;99.50;;;;;;1797556;78;21624;-69
2023/07/17 04:03:56;;;;;;;13.95;6.03;;;31.00;99.40;;;;;;1791344;78;21186;-71
2023/07/17 04:06:32;;;;;;;10.13;4.42;;;31.00;99.60;;;;;;1830285;77;21185;-70
2023/07/17 04:09:06;;;;;;;8.53;5.05;;;31.10;99.20;;;;;;1825278;77;21240;-69
2023/07/17 04:11:41;;;;;;;34.33;9.10;;;31.10;99.00;;;;;;1824577;77;21162;-72
2023/07/17 04:14:18;;;;;;;13.10;4.97;;;31.20;99.10;;;;;;1824548;77;21087;-70
2023/07/17 04:16:49;;;;;;;11.00;4.97;;;31.40;98.60;;;;;;1822483;77;21108;-72
2023/07/17 04:19:22;;;;;;;14.78;6.03;;;31.50;98.70;;;;;;1813795;77;21099;-71
2023/07/17 04:21:55;;;;;;;29.42;9.33;;;31.50;98.40;;;;;;1817824;77;21315;-70
2023/07/17 04:24:33;;;;;;;34.08;8.40;;;31.60;98.60;;;;;;1798158;78;21096;-71
2023/07/17 04:27:10;;;;;;;13.48;5.72;;;31.70;98.40;;;;;;1837444;77;21193;-69
2023/07/17 04:29:45;;;;;;;;;;;31.70;98.00;;;;;;1812595;77;21139;-71
2023/07/17 04:32:19;;;;;;;10.38;4.60;;;31.70;98.20;;;;;;1821641;77;20172;-70
2023/07/17 04:34:57;;;;;;;10.72;5.00;;;31.80;98.20;;;;;;1826890;77;21502;-70
2023/07/17 04:37:29;;;;;;;17.00;5.70;;;31.80;97.90;;;;;;1820124;77;21213;-70
2023/07/17 04:40:05;;;;;;;15.38;6.08;;;31.80;98.20;;;;;;1832968;77;21173;-71
2023/07/17 04:42:34;;;;;;;13.53;5.70;;;32.00;97.80;;;;;;1815243;77;21206;-71
2023/07/17 04:45:09;;;;;;;12.85;6.15;;;32.10;97.60;;;;;;1801155;79;21150;-71
2023/07/17 04:47:42;;;;;;;10.13;5.60;;;32.30;97.60;;;;;;1813686;78;21523;-70
2023/07/17 04:50:18;;;;;;;10.70;4.47;;;32.40;97.40;;;;;;1804078;78;21158;-71
2023/07/17 04:52:53;;;;;;;12.23;5.00;;;32.60;97.20;;;;;;1807772;78;21193;-72
2023/07/17 04:55:28;;;;;;;9.68;4.67;;;32.60;97.20;;;;;;1804357;78;21080;-69
2023/07/17 04:58:00;;;;;;;10.00;4.40;;;32.80;97.50;;;;;;1791196;79;21138;-70
2023/07/17 05:00:33;;;;;;;12.80;4.47;;;32.80;99.90;;;;;;1805815;78;21581;-70
2023/07/17 05:03:10;;;;;;;12.40;4.60;;;32.90;97.00;;;;;;1801074;78;21147;-72
2023/07/17 05:05:51;;;;;;;7.95;4.22;;;32.90;96.70;;;;;;1811570;78;21140;-70
2023/07/17 05:08:23;;;;;;;12.53;5.67;;;33.00;96.30;;;;;;1802691;78;21479;-71
2023/07/17 05:10:55;;;;;;;7.78;4.00;;;33.00;96.60;;;;;;1804822;78;21212;-72
2023/07/17 05:13:33;;;;;;;10.72;4.10;;;33.00;96.00;;;;;;1805281;78;21633;-72
2023/07/17 05:16:08;;;;;;;8.60;4.00;;;33.00;95.70;;;;;;1770529;80;21189;-72
2023/07/17 05:18:41;;;;;;;10.32;4.53;;;33.10;95.90;;;;;;1802854;78;21110;-72
2023/07/17 05:21:14;;;;;;;6.50;4.10;;;33.10;96.30;;;;;;1789548;78;21199;-71
2023/07/17 05:23:47;;;;;;;8.95;3.85;;;33.30;96.00;;;;;;1802503;78;21461;-73
2023/07/17 05:26:21;;;;;;;8.23;4.03;;;33.40;96.20;;;;;;1804645;78;21197;-72
2023/07/17 05:28:55;;;;;;;9.25;4.40;;;33.40;95.40;;;;;;1801154;78;21131;-71
2023/07/17 05:31:28;;;;;;;8.85;3.80;;;33.30;95.50;;;;;;1801260;78;21306;-73
2023/07/17 05:34:04;;;;;;;9.48;4.15;;;33.30;95.30;;;;;;1804068;78;21206;-72
2023/07/17 05:36:37;;;;;;;9.55;4.12;;;33.40;95.80;;;;;;1801302;78;21507;-73
2023/07/17 05:39:11;;;;;;;8.55;3.50;;;33.40;95.50;;;;;;1789202;79;21617;-73
2023/07/17 05:41:43;;;;;;;10.50;3.83;;;33.50;95.10;;;;;;1760662;80;21155;-72
2023/07/17 05:44:16;;;;;;;7.30;3.17;;;33.60;95.10;;;;;;1805142;79;21270;-74
2023/07/17 05:46:50;;;;;;;9.00;3.62;;;33.60;94.60;;;;;;1812799;78;21171;-71
2023/07/17 05:49:24;;;;;;;10.68;4.30;;;33.60;94.30;;;;;;1808701;78;21145;-71
2023/07/17 05:51:57;;;;;;;11.70;3.92;;;33.50;94.80;;;;;;1806244;78;21072;-71
2023/07/17 05:54:30;;;;;;;5.65;3.17;;;33.40;95.10;;;;;;1829737;77;21209;-70
2023/07/17 05:57:05;;;;;;;5.20;3.20;;;33.40;94.50;;;;;;1824438;77;21559;-73
2023/07/17 05:59:39;;;;;;;6.80;3.22;;;33.30;94.90;;;;;;1826313;77;21098;-71
2023/07/17 06:02:12;;;;;;;6.55;3.08;;;33.20;95.40;;;;;;1813950;77;21151;-71
2023/07/17 06:04:44;;;;;;;7.25;3.50;;;33.10;96.20;;;;;;1826683;77;21127;-72
2023/07/17 06:07:21;;;;;;;10.43;3.65;;;32.90;95.00;;;;;;1818559;77;21577;-71
2023/07/17 06:09:54;;;;;;;9.23;3.83;;;32.80;95.90;;;;;;1837470;77;21699;-72
2023/07/17 06:12:25;;;;;;;5.67;3.80;;;32.70;96.10;;;;;;1845927;77;21187;-71
2023/07/17 06:14:56;;;;;;;16.93;5.10;;;32.60;96.00;;;;;;1837162;77;21197;-70
2023/07/17 06:17:28;;;;;;;13.65;4.10;;;32.60;96.20;;;;;;1824846;77;21641;-72
2023/07/17 06:20:02;;;;;;;27.50;6.92;;;32.60;96.30;;;;;;1828639;77;21174;-71
2023/07/17 06:22:36;;;;;;;14.93;5.42;;;32.60;96.40;;;;;;1795960;78;21166;-69
2023/07/17 06:25:10;;;;;;;27.37;6.45;;;32.60;96.10;;;;;;1797740;78;21100;-72
2023/07/17 06:27:41;;;;;;;7.72;3.40;;;32.60;96.00;;;;;;1818401;77;21146;-70
2023/07/17 06:30:15;;;;;;;20.43;5.35;;;32.60;96.30;;;;;;1818348;77;21200;-70
2023/07/17 06:32:48;;;;;;;9.08;4.42;;;32.60;96.50;;;;;;1801403;78;21105;-73
2023/07/17 06:35:21;;;;;;;18.85;5.83;;;32.80;96.50;;;;;;1801868;78;21148;-70
2023/07/17 06:37:55;;;;;;;16.85;5.80;;;32.90;96.60;;;;;;1815591;78;21186;-69
2023/07/17 06:40:28;;;;;;;11.60;5.90;;;32.90;96.80;;;;;;1804310;79;21207;-72
2023/07/17 06:43:02;;;;;;;8.88;3.72;;;33.00;96.20;;;;;;1798386;78;21107;-72
2023/07/17 06:45:34;;;;;;;10.18;3.62;;;33.10;96.40;;;;;;1828123;77;21105;-70
2023/07/17 06:48:08;;;;;;;21.17;6.00;;;33.20;95.80;;;;;;1807731;78;21078;-72
2023/07/17 06:50:40;;;;;;;24.75;5.55;;;33.20;96.30;;;;;;1808529;78;21087;-73
2023/07/17 06:53:13;;;;;;;19.45;6.05;;;33.30;96.10;;;;;;1842346;77;21565;-71
2023/07/17 06:55:46;;;;;;;18.30;5.05;;;33.30;95.60;;;;;;1792625;80;21165;-69
2023/07/17 06:58:19;;;;;;;14.20;4.62;;;33.40;95.70;;;;;;1822416;79;21146;-69
2023/07/17 07:01:03;;;;;;;19.92;4.35;;;33.40;95.40;;;;;;1825804;77;21574;-71
2023/07/17 07:03:37;;;;;;;24.23;4.83;;;33.50;95.30;;;;;;1798195;80;21165;-70
2023/07/17 07:06:12;;;;;;;;;;;33.50;95.60;;;;;;1828430;78;21581;-71
2023/07/17 07:08:46;;;;;;;29.35;6.92;;;33.50;96.20;;;;;;1824921;77;20212;-68
2023/07/17 07:11:20;;;;;;;18.50;5.80;;;33.40;95.70;;;;;;1818750;77;21545;-69
2023/07/17 07:13:53;;;;;;;15.15;5.20;;;33.50;95.80;;;;;;1823745;78;21127;-71
2023/07/17 07:16:25;;;;;;;31.57;6.78;;;33.60;95.40;;;;;;1837094;77;21119;-71
2023/07/17 07:18:59;;;;;;;9.40;4.15;;;33.60;95.00;;;;;;1836626;77;21078;-73
2023/07/17 07:21:33;;;;;;;11.30;4.17;;;33.60;94.90;;;;;;1829627;77;21560;-71
2023/07/17 07:24:09;;;;;;;44.03;8.13;;;33.60;95.40;;;;;;1825373;77;21076;-71
2023/07/17 07:26:41;;;;;;;17.90;5.08;;;33.60;95.40;;;;;;1823054;77;21444;-72
2023/07/17 07:29:18;;;;;;;18.12;5.80;;;33.50;95.20;;;;;;1828710;77;21121;-72
2023/07/17 07:31:52;;;;;;;17.20;5.10;;;33.40;95.30;;;;;;1821286;77;21162;-70
2023/07/17 07:34:24;;;;;;;14.93;4.87;;;33.40;95.30;;;;;;1823513;77;21196;-71
2023/07/17 07:36:58;;;;;;;13.28;5.08;;;33.40;95.20;;;;;;1822875;77;21169;-70
2023/07/17 07:39:33;;;;;;;;;;;33.40;95.50;;;;;;1801423;78;21171;-71
2023/07/17 07:42:08;;;;;;;24.80;6.33;;;33.40;96.10;;;;;;1820697;77;20183;-70
2023/07/17 07:44:40;;;;;;;11.80;5.37;;;33.50;95.90;;;;;;1776084;78;21193;-71
2023/07/17 07:47:13;;;;;;;13.43;5.47;;;33.50;95.90;;;;;;1771656;79;21172;-72
2023/07/17 07:49:46;;;;;;;10.13;4.25;;;33.50;95.60;;;;;;1802801;78;21256;-72
2023/07/17 07:52:19;;;;;;;9.53;4.17;;;33.50;95.30;;;;;;1788535;79;21136;-72
2023/07/17 07:54:52;;;;;;;11.97;4.58;;;33.50;94.80;;;;;;1785781;79;21219;-70
2023/07/17 07:57:26;;;;;;;18.80;5.87;;;33.50;94.90;;;;;;1784530;79;21558;-72
2023/07/17 07:59:59;;;;;;;23.05;7.37;;;33.50;95.40;;;;;;1783424;79;21299;-71
2023/07/17 08:02:32;;;;;;;14.78;4.58;;;33.40;95.10;;;;;;1778036;79;21550;-72
2023/07/17 08:05:08;;;;;;;6.95;4.03;;;33.40;94.60;;;;;;1795980;78;21225;-72
2023/07/17 08:07:43;;;;;;;19.90;4.30;;;33.40;95.00;;;;;;1822542;78;21776;-71
2023/07/17 08:10:16;;;;;;;74.27;13.80;;;33.30;95.20;;;;;;1796118;80;21161;-71
2023/07/17 08:12:53;;;;;;;27.13;7.75;;;33.30;95.50;;;;;;1824849;78;21063;-71
2023/07/17 08:15:25;;;;;;;23.90;6.03;;;33.30;95.10;;;;;;1820811;78;21091;-70
2023/07/17 08:17:59;;;;;;;14.58;7.10;;;33.30;95.10;;;;;;1812553;78;21173;-72
2023/07/17 08:20:32;;;;;;;7.00;3.60;;;33.30;95.20;;;;;;1805026;78;21098;-73
2023/07/17 08:23:09;;;;;;;12.05;4.15;;;33.30;95.00;;;;;;1775798;80;21694;-72
2023/07/17 08:25:43;;;;;;;22.58;8.83;;;33.30;95.10;;;;;;1802297;79;21094;-70
2023/07/17 08:28:14;;;;;;;47.35;6.50;;;33.30;95.30;;;;;;1771157;80;21214;-72
2023/07/17 08:30:47;;;;;;;8.38;3.60;;;33.30;95.20;;;;;;1770403;79;21130;-71
2023/07/17 08:33:21;;;;;;;29.98;6.92;;;33.40;95.00;;;;;;1776972;79;21155;-71
2023/07/17 08:35:53;;;;;;;42.03;7.53;;;33.30;95.50;;;;;;1772569;79;21098;-71
2023/07/17 08:38:29;;;;;;;38.25;6.35;;;33.30;95.30;;;;;;1775379;79;21201;-73
2023/07/17 08:41:01;;;;;;;33.70;7.37;;;33.20;95.40;;;;;;1774329;79;21111;-73
2023/07/17 08:43:38;;;;;;;7.42;3.22;;;33.30;95.20;;;;;;1776588;79;21146;-71
2023/07/17 08:46:12;;;;;;;29.70;7.55;;;33.30;95.30;;;;;;1779349;80;21120;-72
2023/07/17 08:48:45;;;;;;;12.05;4.47;;;33.20;95.40;;;;;;1815621;77;21123;-72
2023/07/17 08:51:17;;;;;;;14.55;4.17;;;33.20;95.40;;;;;;1817299;77;21060;-71
2023/07/17 08:53:53;;;;;;;13.45;3.80;;;33.10;95.70;;;;;;1826248;77;21108;-72
2023/07/17 08:56:29;;;;;;;17.23;6.60;;;33.10;95.60;;;;;;1815935;77;21146;-71
2023/07/17 08:59:02;;;;;;;7.30;3.22;;;33.00;95.70;;;;;;1827460;77;21755;-71
2023/07/17 09:01:36;;;;;;;7.28;4.25;;;33.00;95.60;;;;;;1819080;78;21084;-72
2023/07/17 09:04:10;;;;;;;5.45;2.12;;;33.00;96.00;;;;;;1818730;78;21091;-73
2023/07/17 09:06:42;;;;;;;6.45;3.30;;;32.80;94.70;;;;;;1798166;79;21174;-72
2023/07/17 09:09:17;;;;;;;12.98;3.15;;;32.50;94.90;;;;;;1783629;79;21143;-71
2023/07/17 09:12:11;;;;;;;11.25;2.37;;;32.20;94.90;;;;;;1812454;78;21233;-72
2023/07/17 09:14:44;;;;;;;12.90;3.12;;;32.00;95.20;;;;;;1791695;79;21104;-70
2023/07/17 09:17:17;;;;;;;7.72;2.45;;;31.80;95.30;;;;;;1824540;77;21181;-73
2023/07/17 09:19:50;;;;;;;12.03;3.05;;;31.60;95.60;;;;;;1775611;79;21116;-70
2023/07/17 09:22:22;;;;;;;9.18;2.10;;;31.50;95.60;;;;;;1784081;79;21241;-72
2023/07/17 09:24:56;;;;;;;20.75;2.80;;;31.40;95.60;;;;;;1807578;78;21158;-72
2023/07/17 09:27:29;;;;;;;17.32;3.12;;;31.40;95.80;;;;;;1812758;77;21092;-71
2023/07/17 09:30:12;;;;;;;8.63;2.80;;;31.30;96.00;;;;;;1811137;78;21149;-71
2023/07/17 09:32:46;;;;;;;8.40;2.58;;;31.20;97.30;;;;;;1786144;79;21116;-69
2023/07/17 09:35:24;;;;;;;19.42;3.60;;;31.00;98.20;;;;;;1817536;77;21470;-71
2023/07/17 09:37:56;;;;;;;21.07;3.50;;;30.90;98.80;;;;;;1823427;77;21216;-71
2023/07/17 09:40:29;;;;;;;16.30;3.60;;;30.70;98.90;;;;;;1833040;77;21233;-72
2023/07/17 09:43:04;;;;;;;17.10;4.12;;;30.50;98.70;;;;;;1824087;77;21131;-71
2023/07/17 09:45:38;;;;;;;10.70;2.95;;;30.30;98.90;;;;;;1813715;77;21294;-71
2023/07/17 09:48:14;;;;;;;6.78;2.75;;;30.20;98.80;;;;;;1831044;77;21581;-71
2023/07/17 09:50:46;;;;;;;6.00;1.85;;;30.10;98.40;;;;;;1829459;77;21091;-73
2023/07/17 09:53:20;;;;;;;4.58;1.90;;;30.10;98.30;;;;;;1833863;77;21103;-70
2023/07/17 09:55:54;;;;;;;7.15;1.77;;;30.00;98.40;;;;;;1830107;77;21556;-70
2023/07/17 09:58:28;;;;;;;4.65;1.60;;;29.90;98.50;;;;;;1828399;77;21150;-72
2023/07/17 10:01:03;;;;;;;4.95;2.05;;;29.90;98.70;;;;;;1833634;77;21208;-72
2023/07/17 10:03:37;;;;;;;9.35;2.60;;;29.80;98.70;;;;;;1838350;77;21103;-70
2023/07/17 10:06:11;;;;;;;16.30;3.65;;;29.90;98.70;;;;;;1826149;77;21067;-72
2023/07/17 10:08:46;;;;;;;10.25;2.70;;;29.90;98.70;;;;;;1835664;77;21134;-72
2023/07/17 10:11:20;;;;;;;3.98;2.22;;;29.90;98.40;;;;;;1803067;78;21514;-70
2023/07/17 10:13:55;;;;;;;7.30;2.17;;;29.90;98.60;;;;;;1831107;77;21090;-72
2023/07/17 10:16:27;;;;;;;6.70;1.67;;;29.80;98.40;;;;;;1820284;77;21126;-71
2023/07/17 10:19:02;;;;;;;6.83;2.30;;;29.80;98.40;;;;;;1830234;77;21106;-74
2023/07/17 10:21:35;;;;;;;4.50;1.55;;;29.70;98.80;;;;;;1803817;78;21135;-71
2023/07/17 10:24:08;;;;;;;4.03;1.40;;;29.80;98.70;;;;;;1793778;79;21131;-72
2023/07/17 10:26:47;;;;;;;6.42;1.72;;;29.70;98.60;;;;;;1827581;77;21196;-73
2023/07/17 10:29:34;;;;;;;3.90;2.22;;;29.70;98.40;;;;;;1837109;77;21199;-73
2023/07/17 10:32:10;;;;;;;8.43;2.58;;;29.70;98.30;;;;;;1823592;77;21200;-69
2023/07/17 10:34:54;;;;;;;6.25;2.45;;;29.70;98.40;;;;;;1819949;77;21145;-71
2023/07/17 10:37:31;;;;;;;7.60;2.75;;;29.60;98.60;;;;;;1828494;77;21091;-71
2023/07/17 10:40:07;;;;;;;8.93;2.58;;;29.70;98.30;;;;;;1824582;77;21118;-72
2023/07/17 10:42:41;;;;;;;8.53;2.00;;;29.60;98.20;;;;;;1795921;78;21597;-70
2023/07/17 10:45:16;;;;;;;6.20;2.12;;;29.60;98.10;;;;;;1784992;79;21145;-71
2023/07/17 10:47:59;;;;;;;21.75;3.20;;;29.70;97.90;;;;;;1828900;77;21272;-72
2023/07/17 10:50:32;;;;;;;22.67;2.62;;;29.70;98.20;;;;;;1829282;77;21086;-70
2023/07/17 10:53:09;;;;;;;21.20;3.12;;;29.70;98.10;;;;;;1823046;77;21201;-70
2023/07/17 10:55:40;;;;;;;13.13;1.65;;;29.70;98.40;;;;;;1820013;77;21059;-70
2023/07/17 10:58:15;;;;;;;7.37;2.02;;;29.70;98.40;;;;;;1797854;78;21584;-73
2023/07/17 11:00:49;;;;;;;8.43;4.60;;;29.70;98.40;;;;;;1795986;78;21571;-70
2023/07/17 11:03:26;;;;;;;11.12;5.33;;;29.60;98.50;;;;;;1786758;79;21148;-71
2023/07/17 11:05:57;;;;;;;10.18;3.98;;;29.60;98.80;;;;;;1796363;78;21123;-72
2023/07/17 11:08:30;;;;;;;11.22;5.50;;;29.60;98.70;;;;;;1799404;78;21198;-72
2023/07/17 11:11:03;;;;;;;10.55;5.08;;;29.70;98.70;;;;;;1834105;77;21075;-72
2023/07/17 11:13:36;;;;;;;10.28;4.75;;;29.80;98.70;;;;;;1829661;78;21174;-71
2023/07/17 11:16:12;;;;;;;9.70;3.58;;;29.70;98.60;;;;;;1795523;78;21478;-71
2023/07/17 11:18:48;;;;;;;7.28;4.42;;;29.70;98.70;;;;;;1823269;77;21111;-70
2023/07/17 11:21:24;;;;;;;19.05;4.70;;;29.80;98.60;;;;;;1800768;78;21154;-71
2023/07/17 11:23:58;;;;;;;8.23;3.42;;;29.80;98.70;;;;;;1832569;77;21155;-69
2023/07/17 11:26:33;;;;;;;12.80;3.08;;;29.70;98.60;;;;;;1779358;79;21076;-72
2023/07/17 11:29:12;;;;;;;11.93;3.60;;;29.70;98.80;;;;;;1794157;79;21149;-72
2023/07/17 11:31:45;;;;;;;8.88;3.22;;;29.70;99.00;;;;;;1800756;78;21139;-71
2023/07/17 11:34:20;;;;;;;4.05;2.70;;;29.60;99.00;;;;;;1810118;79;21636;-72
2023/07/17 11:36:54;;;;;;;3.55;2.00;;;29.60;99.00;;;;;;1793302;79;21675;-71
2023/07/17 11:39:31;;;;;;;5.35;2.42;;;29.60;99.00;;;;;;1797037;79;21091;-72
2023/07/17 11:42:05;;;;;;;4.30;2.20;;;29.60;99.20;;;;;;1829954;77;21209;-70
2023/07/17 11:44:38;;;;;;;6.60;2.65;;;29.50;99.30;;;;;;1825588;77;21626;-73
2023/07/17 11:47:14;;;;;;;4.83;2.17;;;29.50;99.30;;;;;;1822099;77;21115;-70
2023/07/17 11:49:49;;;;;;;9.05;2.60;;;29.50;99.50;;;;;;1787566;79;21571;-71
2023/07/17 11:52:21;;;;;;;6.30;2.50;;;29.50;99.50;;;;;;1821432;77;21153;-71
2023/07/17 11:54:56;;;;;;;8.53;2.62;;;29.60;99.60;;;;;;1793104;78;21546;-70
2023/07/17 11:57:31;;;;;;;5.53;2.58;;;29.50;99.50;;;;;;1818013;77;21185;-71
2023/07/17 12:00:10;;;;;;;5.83;2.90;;;29.60;99.40;;;;;;1817700;77;21672;-72
2023/07/17 12:02:44;;;;;;;8.78;2.83;;;29.50;99.50;;;;;;1804284;78;21108;-72
2023/07/17 12:05:16;;;;;;;6.62;2.22;;;29.60;99.50;;;;;;1803287;78;21088;-72
2023/07/17 12:07:48;;;;;;;3.95;2.25;;;29.60;99.40;;;;;;1807145;78;21100;-73
2023/07/17 12:10:24;;;;;;;6.05;2.30;;;29.50;99.40;;;;;;1837716;77;21517;-79
2023/07/17 12:12:56;;;;;;;8.25;2.70;;;29.50;99.50;;;;;;1793336;79;21221;-78
2023/07/17 12:15:31;;;;;;;6.05;3.02;;;29.50;99.60;;;;;;1818308;77;21130;-77
2023/07/17 12:18:05;;;;;;;6.60;2.50;;;29.50;99.70;;;;;;1805650;78;21216;-78
2023/07/17 12:20:38;;;;;;;6.72;2.72;;;29.50;99.80;;;;;;1807491;78;21137;-79
2023/07/17 12:23:11;;;;;;;4.72;2.58;;;29.50;99.90;;;;;;1824385;77;21255;-79
2023/07/17 12:25:48;;;;;;;6.92;2.60;;;29.50;99.90;;;;;;1800327;78;21167;-79
2023/07/17 12:28:21;;;;;;;6.45;3.08;;;29.50;99.90;;;;;;1822339;77;21123;-81
2023/07/17 12:30:54;;;;;;;7.55;3.02;;;29.60;99.90;;;;;;1804098;78;21252;-78
2023/07/17 12:33:28;;;;;;;5.53;3.10;;;29.50;99.90;;;;;;1826353;77;21130;-77
2023/07/17 12:36:00;;;;;;;6.33;3.00;;;29.60;99.90;;;;;;1823295;77;21071;-78
2023/07/17 12:38:36;;;;;;;6.25;3.33;;;29.60;99.90;;;;;;1805497;78;21096;-76
2023/07/17 12:41:07;;;;;;;6.85;3.37;;;29.50;99.90;;;;;;1789454;80;21639;-79
2023/07/17 12:43:57;;;;;;;8.53;3.20;;;29.50;99.90;;;;;;1820180;77;21163;-81
2023/07/17 12:46:35;;;;;;;5.40;3.17;;;29.50;99.90;;;;;;1786159;79;21178;-77
2023/07/17 12:49:08;;;;;;;7.35;3.50;;;29.60;99.90;;;;;;1793765;79;21253;-80
2023/07/17 12:51:44;;;;;;;9.40;3.92;;;29.50;99.90;;;;;;1805382;78;21146;-79
2023/07/17 12:54:18;;;;;;;9.00;3.45;;;29.60;99.90;;;;;;1794172;79;21186;-77
2023/07/17 12:56:55;;;;;;;5.72;3.17;;;29.60;99.90;;;;;;1796041;79;21139;-78
2023/07/17 12:59:46;;;;;;;10.18;3.35;;;29.50;99.90;;;;;;1792561;78;21644;-74
2023/07/17 13:02:38;;;;;;;8.25;3.75;;;29.60;99.90;;;;;;1799984;78;21223;-77
2023/07/17 13:05:11;;;;;;;6.53;3.35;;;29.60;99.90;;;;;;1808294;78;21181;-76
2023/07/17 13:07:45;;;;;;;7.95;3.20;;;29.60;99.90;;;;;;1794616;78;21087;-77
2023/07/17 13:10:23;;;;;;;7.78;3.05;;;29.60;99.90;;;;;;1791498;79;21481;-77
2023/07/17 13:12:55;;;;;;;6.33;2.90;;;29.60;99.90;;;;;;1793372;79;21524;-76
2023/07/17 13:15:32;;;;;;;5.28;3.02;;;29.60;99.90;;;;;;1821969;77;21162;-77